Time;durP1;ratioP1;P1;durP2;ratioP2;P2;SDS_P1;SDS_P2;PMS_P1;PMS_P2;Temp;Humidity;BMP_temperature;BMP_pressure;BME280_temperature;BME280_humidity;BME280_pressure;Samples;Min_cycle;Max_cycle;Signal;HPM_P1;HPM_P2
2023/01/03 00:01:22;;;;;;;;;;;9.40;99.90;;;;;;4991706;28;19940;-79
2023/01/03 00:03:53;;;;;;;;;;;9.40;99.90;;;;;;4994933;28;19961;-78
2023/01/03 00:06:44;;;;;;;;;;;9.40;99.90;;;;;;4994663;28;19980;-78
2023/01/03 00:09:31;;;;;;;;;;;9.40;99.90;;;;;;4996279;28;19936;-78
2023/01/03 00:12:26;;;;;;;;;;;9.30;99.90;;;;;;5001545;28;19936;-79
2023/01/03 00:14:55;;;;;;;;;;;9.40;99.90;;;;;;4999264;28;19933;-79
2023/01/03 00:17:27;;;;;;;;;;;9.30;99.90;;;;;;4992381;28;19932;-78
2023/01/03 00:19:56;;;;;;;;;;;9.30;99.90;;;;;;4995454;28;19926;-79
2023/01/03 00:22:28;;;;;;;;;;;9.30;99.90;;;;;;4981888;28;20377;-78
2023/01/03 00:24:57;;;;;;;;;;;9.30;99.90;;;;;;4994084;28;20000;-79
2023/01/03 00:27:28;;;;;;;;;;;9.30;99.90;;;;;;4995220;28;19936;-79
2023/01/03 00:29:56;;;;;;;;;;;9.30;99.90;;;;;;5002969;28;19925;-77
2023/01/03 00:32:34;;;;;;;;;;;9.30;99.90;;;;;;5002232;28;19987;-78
2023/01/03 00:35:13;;;;;;;;;;;9.30;99.90;;;;;;5004181;28;19925;-78
2023/01/03 00:37:47;;;;;;;;;;;9.30;99.90;;;;;;4999985;28;21860;-78
2023/01/03 00:40:16;;;;;;;;;;;9.20;99.90;;;;;;5005266;28;19930;-78
2023/01/03 00:45:30;;;;;;;;;;;9.20;99.90;;;;;;4998285;28;19929;-78
2023/01/03 00:47:57;;;;;;;;;;;9.20;99.90;;;;;;4984023;28;20012;-78
2023/01/03 00:50:33;;;;;;;;;;;9.20;99.90;;;;;;4986970;28;20043;-78
2023/01/03 00:53:08;;;;;;;;;;;9.20;99.90;;;;;;5000918;28;19944;-78
2023/01/03 00:55:50;;;;;;;;;;;9.20;99.90;;;;;;4993700;28;19929;-78
2023/01/03 00:58:22;;;;;;;;;;;9.20;99.90;;;;;;5003153;28;19964;-78
2023/01/03 01:00:54;;;;;;;;;;;9.20;99.90;;;;;;4995159;28;19929;-78
2023/01/03 01:03:21;;;;;;;;;;;9.20;99.90;;;;;;4994747;28;19933;-78
2023/01/03 01:05:55;;;;;;;;;;;9.20;99.90;;;;;;5005287;28;20008;-78
2023/01/03 01:08:25;;;;;;;;;;;9.10;99.90;;;;;;4983702;28;19969;-77
2023/01/03 01:11:01;;;;;;;;;;;9.10;99.90;;;;;;4982487;28;19929;-77
2023/01/03 01:13:29;;;;;;;;;;;9.10;99.90;;;;;;4998074;28;20572;-78
2023/01/03 01:16:00;;;;;;;;;;;9.20;99.90;;;;;;4998040;28;20025;-78
2023/01/03 01:18:30;;;;;;;;;;;9.10;99.90;;;;;;5000690;28;20386;-78
2023/01/03 01:21:03;;;;;;;;;;;9.10;99.90;;;;;;4996944;28;20007;-78
2023/01/03 01:23:33;;;;;;;;;;;9.10;99.90;;;;;;4995355;28;19980;-78
2023/01/03 01:26:04;;;;;;;;;;;9.10;99.90;;;;;;5000081;28;19940;-78
2023/01/03 01:28:35;;;;;;;;;;;9.10;99.90;;;;;;5005850;28;19925;-78
2023/01/03 01:31:08;;;;;;;;;;;9.10;99.90;;;;;;4995828;28;19926;-78
2023/01/03 01:33:45;;;;;;;;;;;9.10;99.90;;;;;;5000467;28;20446;-77
2023/01/03 01:36:17;;;;;;;;;;;9.00;99.90;;;;;;4998444;28;19934;-78
2023/01/03 01:38:48;;;;;;;;;;;9.00;99.90;;;;;;4997940;28;19933;-78
2023/01/03 01:46:57;;;;;;;;;;;9.00;99.90;;;;;;4999248;28;19922;-78
2023/01/03 01:52:15;;;;;;;;;;;9.00;99.90;;;;;;4993954;28;20391;-77
2023/01/03 01:54:42;;;;;;;;;;;9.00;99.90;;;;;;4999150;28;20011;-78
2023/01/03 01:57:12;;;;;;;;;;;9.00;99.90;;;;;;5000666;28;19948;-79
2023/01/03 01:59:38;;;;;;;;;;;9.00;99.90;;;;;;4979516;28;20021;-78
2023/01/03 02:02:05;;;;;;;;;;;9.00;99.90;;;;;;4996326;28;19929;-78
2023/01/03 02:04:34;;;;;;;;;;;9.00;99.90;;;;;;4997763;28;20017;-78
2023/01/03 02:07:01;;;;;;;;;;;8.90;99.90;;;;;;5006696;28;19925;-78
2023/01/03 02:09:31;;;;;;;;;;;8.90;99.90;;;;;;5000480;28;19929;-77
2023/01/03 02:14:44;;;;;;;;;;;8.90;99.90;;;;;;5001496;28;19921;-78
2023/01/03 02:17:16;;;;;;;;;;;8.90;99.90;;;;;;4998071;28;19972;-78
2023/01/03 02:19:52;;;;;;;;;;;8.90;99.90;;;;;;4997504;28;20490;-78
2023/01/03 02:22:40;;;;;;;;;;;8.90;99.90;;;;;;4996743;28;19932;-78
2023/01/03 02:25:29;;;;;;;;;;;8.90;99.90;;;;;;4983562;28;19933;-78
2023/01/03 02:28:25;;;;;;;;;;;8.90;99.90;;;;;;4962455;28;20677;-78
2023/01/03 02:30:59;;;;;;;;;;;8.80;99.90;;;;;;4976367;28;19929;-78
2023/01/03 02:33:42;;;;;;;;;;;8.80;99.90;;;;;;4995582;28;20068;-77
2023/01/03 02:36:14;;;;;;;;;;;8.80;99.90;;;;;;5001552;28;20023;-78
2023/01/03 02:38:47;;;;;;;;;;;8.80;99.90;;;;;;4997043;28;19936;-78
2023/01/03 02:41:19;;;;;;;;;;;8.80;99.90;;;;;;4999070;28;19932;-78
2023/01/03 02:43:48;;;;;;;;;;;8.80;99.90;;;;;;5000943;28;19965;-78
2023/01/03 02:46:20;;;;;;;;;;;8.80;99.90;;;;;;4977150;28;20443;-78
2023/01/03 02:48:51;;;;;;;;;;;8.80;99.90;;;;;;4995094;28;21678;-78
2023/01/03 02:51:21;;;;;;;;;;;8.80;99.90;;;;;;4980956;28;20300;-78
2023/01/03 02:53:49;;;;;;;;;;;8.80;99.90;;;;;;4996484;28;19984;-78
2023/01/03 02:56:23;;;;;;;;;;;8.80;99.90;;;;;;4987392;28;20005;-78
2023/01/03 02:58:54;;;;;;;;;;;8.80;99.90;;;;;;4994617;28;19962;-78
2023/01/03 03:01:24;;;;;;;;;;;8.80;99.90;;;;;;4989068;28;19933;-78
2023/01/03 03:03:52;;;;;;;;;;;8.80;99.90;;;;;;5000740;28;19930;-77
2023/01/03 03:06:21;;;;;;;;;;;8.70;99.90;;;;;;4983948;28;19930;-77
2023/01/03 03:08:49;;;;;;;;;;;8.70;99.90;;;;;;4978869;28;19940;-77
2023/01/03 03:14:05;;;;;;;;;;;8.70;99.90;;;;;;4982357;28;19925;-78
2023/01/03 03:16:49;;;;;;;;;;;8.70;99.90;;;;;;4981785;28;20486;-77
2023/01/03 03:24:52;;;;;;;;;;;8.70;99.90;;;;;;5003034;28;20392;-78
2023/01/03 03:30:13;;;;;;;;;;;8.70;99.90;;;;;;4998209;28;19925;-78
2023/01/03 03:32:43;;;;;;;;;;;8.70;99.90;;;;;;4981593;28;20414;-78
2023/01/03 03:35:12;;;;;;;;;;;8.70;99.90;;;;;;5002994;28;19933;-78
2023/01/03 03:37:40;;;;;;;;;;;8.70;99.90;;;;;;4997173;28;20072;-77
2023/01/03 03:45:45;;;;;;;;;;;8.60;99.90;;;;;;4995369;28;19967;-77
2023/01/03 03:48:15;;;;;;;;;;;8.60;99.90;;;;;;5001351;28;20387;-78
2023/01/03 03:50:45;;;;;;;;;;;8.60;99.90;;;;;;4995546;28;19934;-78
2023/01/03 03:53:12;;;;;;;;;;;8.60;99.90;;;;;;4999617;28;19925;-78
2023/01/03 03:55:42;;;;;;;;;;;8.60;99.90;;;;;;4993260;28;20039;-78
2023/01/03 03:58:11;;;;;;;;;;;8.60;99.90;;;;;;4977544;28;19926;-78
2023/01/03 04:00:40;;;;;;;;;;;8.60;99.90;;;;;;4999344;28;20075;-78
2023/01/03 04:03:07;;;;;;;;;;;8.60;99.90;;;;;;4986458;28;20280;-77
2023/01/03 04:05:40;;;;;;;;;;;8.60;99.90;;;;;;5000717;28;20303;-78
2023/01/03 04:08:09;;;;;;;;;;;8.60;99.90;;;;;;5000367;28;19929;-78
2023/01/03 04:10:36;;;;;;;;;;;8.60;99.90;;;;;;5002296;28;19926;-78
2023/01/03 04:13:04;;;;;;;;;;;8.60;99.90;;;;;;5007659;28;19933;-78
2023/01/03 04:15:32;;;;;;;;;;;8.50;99.90;;;;;;4994608;28;19926;-78
2023/01/03 04:18:01;;;;;;;;;;;8.50;99.90;;;;;;4983968;28;19934;-78
2023/01/03 04:20:28;;;;;;;;;;;8.50;99.90;;;;;;4985208;28;19929;-78
2023/01/03 04:22:58;;;;;;;;;;;8.50;99.90;;;;;;4996008;28;19933;-78
2023/01/03 04:25:26;;;;;;;;;;;8.50;99.90;;;;;;4991889;28;19929;-77
2023/01/03 04:27:53;;;;;;;;;;;8.50;99.90;;;;;;5004676;28;19925;-78
2023/01/03 04:30:21;;;;;;;;;;;8.50;99.90;;;;;;4992653;28;20126;-77
2023/01/03 04:33:04;;;;;;;;;;;8.50;99.90;;;;;;4996865;28;19941;-77
2023/01/03 04:35:36;;;;;;;;;;;8.50;99.90;;;;;;4998998;28;20507;-78
2023/01/03 04:38:09;;;;;;;;;;;8.50;99.90;;;;;;4977029;28;20395;-77
2023/01/03 04:40:41;;;;;;;;;;;8.50;99.90;;;;;;4998865;28;19932;-77
2023/01/03 04:46:09;;;;;;;;;;;8.50;99.90;;;;;;4990545;28;19921;-78
2023/01/03 04:48:35;;;;;;;;;;;8.40;99.90;;;;;;5005745;28;19933;-78
2023/01/03 04:51:02;;;;;;;;;;;8.40;99.90;;;;;;5007460;28;19960;-78
2023/01/03 04:53:30;;;;;;;;;;;8.40;99.90;;;;;;4995785;28;19925;-80
2023/01/03 04:55:57;;;;;;;;;;;8.40;99.90;;;;;;5005318;28;20399;-78
2023/01/03 04:58:24;;;;;;;;;;;8.40;99.90;;;;;;5007069;28;19925;-79
2023/01/03 05:00:58;;;;;;;;;;;8.40;99.90;;;;;;5006183;28;19933;-80
2023/01/03 05:03:25;;;;;;;;;;;8.40;99.90;;;;;;5008328;28;20307;-80
2023/01/03 05:06:00;;;;;;;;;;;8.40;99.90;;;;;;4992621;28;20014;-79
2023/01/03 05:08:33;;;;;;;;;;;8.40;99.90;;;;;;5019529;28;19932;-79
2023/01/03 05:11:02;;;;;;;;;;;8.40;99.90;;;;;;5018261;28;19925;-79
2023/01/03 05:13:28;;;;;;;;;;;8.40;99.90;;;;;;5012373;28;19983;-78
2023/01/03 05:15:55;;;;;;;;;;;8.40;99.90;;;;;;4996557;28;19942;-79
2023/01/03 05:18:25;;;;;;;;;;;8.40;99.90;;;;;;5013333;28;20312;-79
2023/01/03 05:26:25;;;;;;;;;;;8.30;99.90;;;;;;5015682;28;20019;-78
2023/01/03 05:28:53;;;;;;;;;;;8.30;99.90;;;;;;5012106;28;19930;-78
2023/01/03 05:31:23;;;;;;;;;;;8.30;99.90;;;;;;5009008;28;19931;-78
2023/01/03 05:33:49;;;;;;;;;;;8.30;99.90;;;;;;4998345;28;20308;-79
2023/01/03 05:36:16;;;;;;;;;;;8.30;99.90;;;;;;5010340;28;19926;-79
2023/01/03 05:38:43;;;;;;;;;;;8.30;99.90;;;;;;5000737;28;19964;-78
2023/01/03 05:41:12;;;;;;;;;;;8.30;99.90;;;;;;4990839;28;19976;-78
2023/01/03 05:43:40;;;;;;;;;;;8.30;99.90;;;;;;5006076;28;19980;-78
2023/01/03 05:46:07;;;;;;;;;;;8.30;99.90;;;;;;5001393;28;19925;-78
2023/01/03 05:48:36;;;;;;;;;;;8.30;99.90;;;;;;4994951;28;20411;-80
2023/01/03 05:51:04;;;;;;;;;;;8.30;99.90;;;;;;5001655;28;19934;-79
2023/01/03 05:53:31;;;;;;;;;;;8.30;99.90;;;;;;5015910;28;19976;-79
2023/01/03 05:55:58;;;;;;;;;;;8.30;99.90;;;;;;5011278;28;19939;-78
2023/01/03 05:58:24;;;;;;;;;;;8.30;99.90;;;;;;5008609;28;20323;-78
2023/01/03 06:00:53;;;;;;;;;;;8.30;99.90;;;;;;5014116;28;20299;-79
2023/01/03 06:03:19;;;;;;;;;;;8.30;99.90;;;;;;4986795;28;19932;-78
2023/01/03 06:05:46;;;;;;;;;;;8.30;99.90;;;;;;5004508;28;19995;-80
2023/01/03 06:08:13;;;;;;;;;;;8.20;99.90;;;;;;4995221;28;19980;-79
2023/01/03 06:10:40;;;;;;;;;;;8.20;99.90;;;;;;4988969;28;19929;-78
2023/01/03 06:13:07;;;;;;;;;;;8.20;99.90;;;;;;5008669;28;19925;-78
2023/01/03 06:15:34;;;;;;;;;;;8.20;99.90;;;;;;4986193;28;20289;-78
2023/01/03 06:18:01;;;;;;;;;;;8.20;99.90;;;;;;4990726;28;19932;-79
2023/01/03 06:20:28;;;;;;;;;;;8.20;99.90;;;;;;4986523;28;20012;-80
2023/01/03 06:22:55;;;;;;;;;;;8.20;99.90;;;;;;5005609;28;19941;-79
2023/01/03 06:25:22;;;;;;;;;;;8.20;99.90;;;;;;5012367;28;20299;-78
2023/01/03 06:27:49;;;;;;;;;;;8.20;99.90;;;;;;5008907;28;19931;-79
2023/01/03 06:30:16;;;;;;;;;;;8.20;99.90;;;;;;5002691;28;19978;-79
2023/01/03 06:32:43;;;;;;;;;;;8.20;99.90;;;;;;4996042;28;19939;-79
2023/01/03 06:35:12;;;;;;;;;;;8.20;99.90;;;;;;4993193;28;19929;-79
2023/01/03 06:37:38;;;;;;;;;;;8.20;99.90;;;;;;4988246;28;20371;-79
2023/01/03 06:40:06;;;;;;;;;;;8.20;99.90;;;;;;5007398;28;19949;-79
2023/01/03 06:42:41;;;;;;;;;;;8.20;99.90;;;;;;5016371;28;19935;-78
2023/01/03 06:53:29;;;;;;;;;;;8.10;99.90;;;;;;5008880;28;19930;-79
2023/01/03 06:55:56;;;;;;;;;;;8.20;99.90;;;;;;5010128;28;20007;-79
2023/01/03 06:58:22;;;;;;;;;;;8.10;99.90;;;;;;5007812;28;19925;-79
2023/01/03 07:00:49;;;;;;;;;;;8.10;99.90;;;;;;5007305;28;19972;-78
2023/01/03 07:03:16;;;;;;;;;;;8.10;99.90;;;;;;5006925;28;20019;-78
2023/01/03 07:05:44;;;;;;;;;;;8.10;99.90;;;;;;5009042;28;19926;-79
2023/01/03 07:08:11;;;;;;;;;;;8.10;99.90;;;;;;5008836;28;20400;-77
2023/01/03 07:10:41;;;;;;;;;;;8.10;99.90;;;;;;5003448;28;19929;-77
2023/01/03 07:15:55;;;;;;;;;;;8.10;99.90;;;;;;5001585;28;19921;-76
2023/01/03 07:18:22;;;;;;;;;;;8.10;99.90;;;;;;4994268;28;20028;-77
2023/01/03 07:20:50;;;;;;;;;;;8.10;99.90;;;;;;5006822;28;20564;-78
2023/01/03 07:23:17;;;;;;;;;;;8.10;99.90;;;;;;5003068;28;19925;-77
2023/01/03 07:25:43;;;;;;;;;;;8.00;99.90;;;;;;5010049;28;20027;-77
2023/01/03 07:28:11;;;;;;;;;;;8.00;99.90;;;;;;5007145;28;19925;-77
2023/01/03 07:30:40;;;;;;;;;;;8.00;99.90;;;;;;5001710;28;20311;-76
2023/01/03 07:33:08;;;;;;;;;;;8.10;99.90;;;;;;4987457;28;20209;-75
2023/01/03 07:35:35;;;;;;;;;;;8.00;99.90;;;;;;5004753;28;20296;-77
2023/01/03 07:38:05;;;;;;;;;;;8.00;99.90;;;;;;4996862;28;19934;-76
2023/01/03 07:40:36;;;;;;;;;;;8.00;99.90;;;;;;4994659;28;20407;-77
2023/01/03 07:45:48;;;;;;;;;;;8.00;99.90;;;;;;4998123;28;20423;-77
2023/01/03 07:48:15;;;;;;;;;;;8.00;99.90;;;;;;4999138;28;19971;-77
2023/01/03 07:50:43;;;;;;;;;;;8.00;99.90;;;;;;5000450;28;19933;-77
2023/01/03 07:53:15;;;;;;;;;;;8.00;99.90;;;;;;5004385;28;19932;-77
2023/01/03 07:55:42;;;;;;;;;;;8.00;99.90;;;;;;4982969;28;20401;-77
2023/01/03 07:58:10;;;;;;;;;;;8.00;99.90;;;;;;4997677;28;19925;-77
2023/01/03 08:00:37;;;;;;;;;;;8.00;99.90;;;;;;5000316;28;19936;-77
2023/01/03 08:03:04;;;;;;;;;;;8.00;99.90;;;;;;4989733;28;19984;-77
2023/01/03 08:05:30;;;;;;;;;;;8.00;99.90;;;;;;4999481;28;20032;-77
2023/01/03 08:07:57;;;;;;;;;;;8.00;99.90;;;;;;5006555;28;19944;-77
2023/01/03 08:13:19;;;;;;;;;;;7.90;99.90;;;;;;4994311;28;19937;-77
2023/01/03 08:15:47;;;;;;;;;;;8.00;99.90;;;;;;4998233;28;19926;-78
2023/01/03 08:18:14;;;;;;;;;;;7.90;99.90;;;;;;4997171;28;19925;-77
2023/01/03 08:20:41;;;;;;;;;;;7.90;99.90;;;;;;4999433;28;19933;-77
2023/01/03 08:23:08;;;;;;;;;;;7.90;99.90;;;;;;4999215;28;20303;-77
2023/01/03 08:25:37;;;;;;;;;;;7.90;99.90;;;;;;4998613;28;19934;-77
2023/01/03 08:28:04;;;;;;;;;;;7.90;99.90;;;;;;4989677;28;19934;-77
2023/01/03 08:30:31;;;;;;;;;;;7.90;99.90;;;;;;4991174;28;20149;-77
2023/01/03 08:33:02;;;;;;;;;;;7.90;99.90;;;;;;4990902;28;20370;-77
2023/01/03 08:35:30;;;;;;;;;;;7.90;99.90;;;;;;4979503;28;19934;-77
2023/01/03 08:37:58;;;;;;;;;;;7.90;99.90;;;;;;5003990;28;20016;-77
2023/01/03 08:40:25;;;;;;;;;;;7.90;99.90;;;;;;5008176;28;19977;-77
2023/01/03 08:42:53;;;;;;;;;;;7.90;99.90;;;;;;4992840;28;19941;-76
2023/01/03 08:45:20;;;;;;;;;;;7.90;99.90;;;;;;4994982;28;19925;-76
2023/01/03 08:47:47;;;;;;;;;;;7.90;99.90;;;;;;4998556;28;20314;-77
2023/01/03 08:50:14;;;;;;;;;;;7.90;99.90;;;;;;5000187;28;19972;-77
2023/01/03 08:52:41;;;;;;;;;;;7.80;99.90;;;;;;4996899;28;20296;-77
2023/01/03 08:55:11;;;;;;;;;;;7.90;99.90;;;;;;4999342;28;19979;-77
2023/01/03 08:57:39;;;;;;;;;;;7.90;99.90;;;;;;5001408;28;20711;-77
2023/01/03 09:00:08;;;;;;;;;;;7.90;99.90;;;;;;4996819;28;20353;-78
2023/01/03 09:02:35;;;;;;;;;;;7.80;99.90;;;;;;4993807;28;19934;-77
2023/01/03 09:05:03;;;;;;;;;;;7.80;99.90;;;;;;4994713;28;19972;-77
2023/01/03 09:07:30;;;;;;;;;;;7.80;99.90;;;;;;4987328;28;20396;-77
2023/01/03 09:09:57;;;;;;;;;;;7.80;99.90;;;;;;4998265;28;19933;-77
2023/01/03 09:12:24;;;;;;;;;;;7.80;99.90;;;;;;5003955;28;19926;-78
2023/01/03 09:14:51;;;;;;;;;;;7.80;99.90;;;;;;4985841;28;19933;-78
2023/01/03 09:17:19;;;;;;;;;;;7.80;99.90;;;;;;5000015;28;20145;-80
2023/01/03 09:19:46;;;;;;;;;;;7.80;99.90;;;;;;4996462;28;19929;-77
2023/01/03 09:22:13;;;;;;;;;;;7.80;99.90;;;;;;5004991;28;19925;-78
2023/01/03 09:24:40;;;;;;;;;;;7.80;99.90;;;;;;4980292;28;19926;-78
2023/01/03 09:27:06;;;;;;;;;;;7.80;99.90;;;;;;4987416;28;22151;-78
2023/01/03 09:29:33;;;;;;;;;;;7.80;99.90;;;;;;4984393;28;20440;-77
2023/01/03 09:32:02;;;;;;;;;;;7.80;99.90;;;;;;5003041;28;20315;-79
2023/01/03 09:34:30;;;;;;;;;;;7.80;99.90;;;;;;5008898;28;19995;-76
2023/01/03 09:36:57;;;;;;;;;;;7.80;99.90;;;;;;5004320;28;19925;-77
2023/01/03 09:39:24;;;;;;;;;;;7.80;99.90;;;;;;5002992;28;19925;-76
2023/01/03 09:44:32;;;;;;;;;;;7.80;99.90;;;;;;5004196;28;20403;-77
2023/01/03 09:46:59;;;;;;;;;;;7.80;99.90;;;;;;5010208;28;19937;-77
2023/01/03 09:49:26;;;;;;;;;;;7.80;99.90;;;;;;5000949;28;19925;-77
2023/01/03 10:06:11;;;;;;;;;;;7.80;99.90;;;;;;5001832;28;20008;-76
2023/01/03 10:08:45;;;;;;;;;;;7.80;99.90;;;;;;5000816;28;20319;-76
2023/01/03 10:11:16;;;;;;;;;;;7.80;99.90;;;;;;5005280;28;20032;-78
2023/01/03 10:13:48;;;;;;;;;;;7.80;99.90;;;;;;4981814;28;19940;-77
2023/01/03 10:16:17;;;;;;;;;;;7.80;99.90;;;;;;5007695;28;20041;-78
2023/01/03 10:18:59;;;;;;;;;;;7.80;99.90;;;;;;5000170;28;20455;-77
2023/01/03 10:21:31;;;;;;;;;;;7.80;99.90;;;;;;5000382;28;21469;-78
2023/01/03 10:24:00;;;;;;;;;;;7.80;99.90;;;;;;4984925;28;20019;-78
2023/01/03 10:26:31;;;;;;;;;;;7.80;99.90;;;;;;4985561;28;19925;-77
2023/01/03 10:28:58;;;;;;;;;;;7.80;99.90;;;;;;4990311;28;20317;-77
2023/01/03 10:31:31;;;;;;;;;;;7.80;99.90;;;;;;4993139;28;19929;-78
2023/01/03 10:33:58;;;;;;;;;;;7.80;99.90;;;;;;4995749;28;20415;-78
2023/01/03 10:36:25;;;;;;;;;;;7.80;99.90;;;;;;4999749;28;19930;-77
2023/01/03 10:39:11;;;;;;;;;;;7.80;99.90;;;;;;5003469;28;20012;-78
2023/01/03 10:41:43;;;;;;;;;;;7.80;99.90;;;;;;5009611;28;20363;-78
2023/01/03 10:44:21;;;;;;;;;;;7.80;99.90;;;;;;5006021;28;19932;-77
2023/01/03 10:46:49;;;;;;;;;;;7.80;99.90;;;;;;5004717;28;19941;-77
2023/01/03 10:49:19;;;;;;;;;;;7.80;99.90;;;;;;5005177;28;19926;-77
2023/01/03 10:51:52;;;;;;;;;;;7.80;99.90;;;;;;5008116;28;19933;-77
2023/01/03 10:54:24;;;;;;;;;;;7.80;99.90;;;;;;5006429;28;20403;-78
2023/01/03 10:56:51;;;;;;;;;;;7.80;99.90;;;;;;5011868;28;19925;-78
2023/01/03 10:59:22;;;;;;;;;;;7.80;99.90;;;;;;5006528;28;19925;-78
2023/01/03 11:01:59;;;;;;;;;;;7.80;99.90;;;;;;5007329;28;19925;-78
2023/01/03 11:04:26;;;;;;;;;;;7.80;99.90;;;;;;5000826;28;19926;-77
2023/01/03 11:07:11;;;;;;;;;;;7.80;99.90;;;;;;5007045;28;19936;-77
2023/01/03 11:09:43;;;;;;;;;;;7.80;99.90;;;;;;4999138;28;19940;-77
2023/01/03 11:12:12;;;;;;;;;;;7.80;99.90;;;;;;5004405;28;19936;-78
2023/01/03 11:14:39;;;;;;;;;;;7.80;99.90;;;;;;5004058;28;19944;-77
2023/01/03 11:17:12;;;;;;;;;;;7.80;99.90;;;;;;5002462;28;19931;-78
2023/01/03 11:19:38;;;;;;;;;;;7.80;99.90;;;;;;5000924;28;19960;-77
2023/01/03 11:22:11;;;;;;;;;;;7.80;99.90;;;;;;5002065;28;19976;-76
2023/01/03 11:24:47;;;;;;;;;;;7.80;99.90;;;;;;5004316;28;19925;-77
2023/01/03 11:27:17;;;;;;;;;;;7.80;99.90;;;;;;4985172;28;20000;-78
2023/01/03 11:29:48;;;;;;;;;;;7.80;99.90;;;;;;4989104;28;19930;-78
2023/01/03 11:32:23;;;;;;;;;;;7.90;99.90;;;;;;5001719;28;19965;-78
2023/01/03 11:35:07;;;;;;;;;;;7.90;99.90;;;;;;5001249;28;19952;-78
2023/01/03 11:37:41;;;;;;;;;;;7.90;99.90;;;;;;4985054;28;20306;-77
2023/01/03 11:40:16;;;;;;;;;;;7.90;99.90;;;;;;5008253;28;19991;-78
2023/01/03 11:42:50;;;;;;;;;;;7.90;99.90;;;;;;5004939;28;19972;-80
2023/01/03 11:45:35;;;;;;;;;;;7.90;99.90;;;;;;5004188;28;19972;-79
2023/01/03 11:48:11;;;;;;;;;;;7.90;99.90;;;;;;5007760;28;20451;-77
2023/01/03 11:50:44;;;;;;;;;;;7.90;99.90;;;;;;5003666;28;20041;-77
2023/01/03 11:53:18;;;;;;;;;;;7.90;99.90;;;;;;5008272;28;19925;-77
2023/01/03 11:55:53;;;;;;;;;;;7.90;99.90;;;;;;4986283;28;19944;-78
2023/01/03 11:58:41;;;;;;;;;;;7.90;99.90;;;;;;5007692;28;19957;-77
2023/01/03 12:01:13;;;;;;;;;;;7.90;99.90;;;;;;4981810;28;19929;-78
2023/01/03 12:03:49;;;;;;;;;;;7.90;99.90;;;;;;5002807;28;20403;-77
2023/01/03 12:06:20;;;;;;;;;;;7.90;99.90;;;;;;5004719;28;20506;-77
2023/01/03 12:08:52;;;;;;;;;;;7.90;99.90;;;;;;4981200;28;20021;-78
2023/01/03 12:11:36;;;;;;;;;;;7.90;99.90;;;;;;5007443;28;19925;-80
2023/01/03 12:14:10;;;;;;;;;;;7.90;99.90;;;;;;4990690;28;20008;-78
2023/01/03 12:16:39;;;;;;;;;;;7.90;99.90;;;;;;5002261;28;19956;-79
2023/01/03 12:19:08;;;;;;;;;;;7.90;99.90;;;;;;5007822;28;19960;-77
2023/01/03 12:21:36;;;;;;;;;;;7.90;99.90;;;;;;5001914;28;19925;-78
2023/01/03 12:24:07;;;;;;;;;;;7.90;99.90;;;;;;5012325;28;19933;-78
2023/01/03 12:26:36;;;;;;;;;;;7.90;99.90;;;;;;5008833;28;20478;-79
2023/01/03 12:29:05;;;;;;;;;;;7.90;99.90;;;;;;4996555;28;19937;-79
2023/01/03 12:31:37;;;;;;;;;;;7.90;99.90;;;;;;4996734;28;19926;-79
2023/01/03 12:34:16;;;;;;;;;;;7.90;99.90;;;;;;4994989;28;19975;-80
2023/01/03 12:36:48;;;;;;;;;;;7.90;99.90;;;;;;5005867;28;20012;-77
2023/01/03 12:39:33;;;;;;;;;;;7.90;99.90;;;;;;5010421;28;19968;-77
2023/01/03 12:42:03;;;;;;;;;;;7.90;99.90;;;;;;5005811;28;20391;-77
2023/01/03 12:44:36;;;;;;;;;;;7.90;99.90;;;;;;5010059;28;19933;-78
2023/01/03 12:47:05;;;;;;;;;;;7.90;99.90;;;;;;5006938;28;19945;-78
2023/01/03 12:49:35;;;;;;;;;;;7.90;99.90;;;;;;5002938;28;20431;-78
2023/01/03 12:52:02;;;;;;;;;;;7.90;99.90;;;;;;4992301;28;20030;-77
2023/01/03 12:54:37;;;;;;;;;;;7.90;99.90;;;;;;5006268;28;20396;-78
2023/01/03 12:57:18;;;;;;;;;;;7.90;99.90;;;;;;5003518;28;19944;-78
2023/01/03 13:00:01;;;;;;;;;;;7.90;99.90;;;;;;5009141;28;19929;-80
2023/01/03 13:02:34;;;;;;;;;;;7.90;99.90;;;;;;5007641;28;19925;-77
2023/01/03 13:05:10;;;;;;;;;;;7.90;99.90;;;;;;5000114;28;19926;-78
2023/01/03 13:07:38;;;;;;;;;;;7.90;99.90;;;;;;5013457;28;19968;-77
2023/01/03 13:10:07;;;;;;;;;;;7.90;99.90;;;;;;5006603;28;19939;-77
2023/01/03 13:12:34;;;;;;;;;;;7.90;99.90;;;;;;5002973;28;19952;-78
2023/01/03 13:15:13;;;;;;;;;;;7.90;99.90;;;;;;4990697;28;20020;-78
2023/01/03 13:17:46;;;;;;;;;;;7.90;99.90;;;;;;4995334;28;20380;-78
2023/01/03 13:20:25;;;;;;;;;;;7.90;99.90;;;;;;5007493;28;19926;-78
2023/01/03 13:22:57;;;;;;;;;;;7.90;99.90;;;;;;4995052;28;19976;-77
2023/01/03 13:25:32;;;;;;;;;;;7.90;99.90;;;;;;4993976;28;20026;-78
2023/01/03 13:27:59;;;;;;;;;;;7.90;99.90;;;;;;4990590;28;19929;-77
2023/01/03 13:30:26;;;;;;;;;;;7.90;99.90;;;;;;5008564;28;19934;-78
2023/01/03 13:33:04;;;;;;;;;;;7.90;99.90;;;;;;4992352;28;19933;-78
2023/01/03 13:35:32;;;;;;;;;;;8.00;99.90;;;;;;4980383;28;19926;-79
2023/01/03 13:38:19;;;;;;;;;;;7.90;99.90;;;;;;4996105;28;20276;-77
2023/01/03 13:40:51;;;;;;;;;;;8.00;99.90;;;;;;5002368;28;19964;-78
2023/01/03 13:43:19;;;;;;;;;;;7.90;99.90;;;;;;5009456;28;19933;-78
2023/01/03 13:45:50;;;;;;;;;;;7.90;99.90;;;;;;5008503;28;19931;-79
2023/01/03 13:48:21;;;;;;;;;;;8.00;99.90;;;;;;5011265;28;19925;-79
2023/01/03 13:51:21;;;;;;;;;;;8.00;99.90;;;;;;4996621;28;19937;-79
2023/01/03 13:53:53;;;;;;;;;;;8.00;99.90;;;;;;5012075;28;20421;-79
2023/01/03 13:56:20;;;;;;;;;;;8.00;99.90;;;;;;5015524;28;19979;-78
2023/01/03 13:58:49;;;;;;;;;;;8.00;99.90;;;;;;4995268;28;20354;-79
2023/01/03 14:01:23;;;;;;;;;;;8.00;99.90;;;;;;5009302;28;19925;-79
2023/01/03 14:04:03;;;;;;;;;;;8.00;99.90;;;;;;5011537;28;19971;-79
2023/01/03 14:06:45;;;;;;;;;;;8.00;99.90;;;;;;5007887;28;19971;-79
2023/01/03 14:09:35;;;;;;;;;;;8.00;99.90;;;;;;5007232;28;20335;-78
2023/01/03 14:12:09;;;;;;;;;;;8.00;99.90;;;;;;5012349;28;20016;-79
2023/01/03 14:14:38;;;;;;;;;;;8.00;99.90;;;;;;5006551;28;20182;-79
2023/01/03 14:17:13;;;;;;;;;;;8.00;99.90;;;;;;5013122;28;19925;-79
2023/01/03 14:19:42;;;;;;;;;;;8.00;99.90;;;;;;5015524;28;20354;-79
2023/01/03 14:22:13;;;;;;;;;;;8.00;99.90;;;;;;5013289;28;19957;-79
2023/01/03 14:24:46;;;;;;;;;;;8.00;99.90;;;;;;5008138;28;19926;-80
2023/01/03 14:27:13;;;;;;;;;;;8.00;99.90;;;;;;4989690;28;19933;-79
2023/01/03 14:29:41;;;;;;;;;;;8.00;99.90;;;;;;5015969;28;19956;-80
2023/01/03 14:32:17;;;;;;;;;;;8.00;99.90;;;;;;5004855;28;20531;-79
2023/01/03 14:34:46;;;;;;;;;;;8.00;99.90;;;;;;4990730;28;20024;-80
2023/01/03 14:37:14;;;;;;;;;;;8.00;99.90;;;;;;5016514;28;19925;-80
2023/01/03 14:39:50;;;;;;;;;;;8.00;99.90;;;;;;5011538;28;19932;-80
2023/01/03 14:42:17;;;;;;;;;;;8.00;99.90;;;;;;4998472;28;19983;-80
2023/01/03 14:44:49;;;;;;;;;;;8.10;99.90;;;;;;5006650;28;19975;-80
2023/01/03 14:47:17;;;;;;;;;;;8.00;99.90;;;;;;5008424;28;19929;-79
2023/01/03 14:49:47;;;;;;;;;;;8.00;99.90;;;;;;5006693;28;19933;-80
2023/01/03 14:52:21;;;;;;;;;;;8.00;99.90;;;;;;5012067;28;20015;-80
2023/01/03 14:54:49;;;;;;;;;;;8.00;99.90;;;;;;5012161;28;19929;-79
2023/01/03 14:57:17;;;;;;;;;;;8.00;99.90;;;;;;5005624;28;19930;-80
2023/01/03 14:59:45;;;;;;;;;;;8.00;99.90;;;;;;5008053;28;19925;-80
2023/01/03 15:02:13;;;;;;;;;;;8.00;99.90;;;;;;4999390;28;19954;-80
2023/01/03 15:04:43;;;;;;;;;;;8.00;99.90;;;;;;5010914;28;19926;-80
2023/01/03 15:07:27;;;;;;;;;;;8.10;99.90;;;;;;5009757;28;19932;-80
2023/01/03 15:10:02;;;;;;;;;;;8.00;99.90;;;;;;5006616;28;19968;-80
2023/01/03 15:12:30;;;;;;;;;;;8.00;99.90;;;;;;5005394;28;19925;-79
2023/01/03 15:14:58;;;;;;;;;;;8.00;99.90;;;;;;4988432;28;19988;-80
2023/01/03 15:17:26;;;;;;;;;;;8.00;99.90;;;;;;4997574;28;20004;-80
2023/01/03 15:19:54;;;;;;;;;;;8.00;99.90;;;;;;4995241;28;19956;-79
2023/01/03 15:22:23;;;;;;;;;;;8.00;99.90;;;;;;5007272;28;19925;-79
2023/01/03 15:24:51;;;;;;;;;;;8.00;99.90;;;;;;5008769;28;20366;-79
2023/01/03 15:27:41;;;;;;;;;;;8.00;99.90;;;;;;4993266;28;19937;-80
2023/01/03 15:30:37;;;;;;;;;;;8.00;99.90;;;;;;5005049;28;19976;-80
2023/01/03 15:33:20;;;;;;;;;;;8.00;99.90;;;;;;4977412;28;19925;-80
2023/01/03 15:35:49;;;;;;;;;;;8.00;99.90;;;;;;5006338;28;20394;-80
2023/01/03 15:38:22;;;;;;;;;;;8.00;99.90;;;;;;5004085;28;20379;-80
2023/01/03 15:40:51;;;;;;;;;;;8.00;99.90;;;;;;5012849;28;19925;-79
2023/01/03 15:43:20;;;;;;;;;;;8.00;99.90;;;;;;4995112;28;19937;-80
2023/01/03 15:45:52;;;;;;;;;;;8.00;99.90;;;;;;5010562;28;19921;-79
2023/01/03 15:48:21;;;;;;;;;;;8.00;99.90;;;;;;5012436;28;20404;-80
2023/01/03 15:50:49;;;;;;;;;;;8.00;99.90;;;;;;4994926;28;19936;-79
2023/01/03 15:53:25;;;;;;;;;;;8.00;99.90;;;;;;5013274;28;19937;-79
2023/01/03 15:55:55;;;;;;;;;;;8.00;99.90;;;;;;5007444;28;20309;-80
2023/01/03 15:58:23;;;;;;;;;;;8.00;99.90;;;;;;5010566;28;20020;-80
2023/01/03 16:00:52;;;;;;;;;;;7.90;99.90;;;;;;5010858;28;20449;-80
2023/01/03 16:03:20;;;;;;;;;;;7.90;99.90;;;;;;5022887;28;19925;-80
2023/01/03 16:05:48;;;;;;;;;;;7.90;99.90;;;;;;5020400;28;19933;-80